sensor_id;sensor_type;location;lat;lon;timestamp;P1;durP1;ratioP1;P2;durP2;ratioP2
25509;SDS011;13413;52.336;21.200;2023-12-07T00:02:02;87.10;;;41.30;;
25509;SDS011;13413;52.336;21.200;2023-12-07T00:04:52;98.80;;;47.20;;
25509;SDS011;13413;52.336;21.200;2023-12-07T00:07:39;92.20;;;44.00;;
25509;SDS011;13413;52.336;21.200;2023-12-07T00:10:27;89.10;;;43.30;;
25509;SDS011;13413;52.336;21.200;2023-12-07T00:13:14;85.20;;;39.90;;
25509;SDS011;13413;52.336;21.200;2023-12-07T00:16:02;86.50;;;41.50;;
25509;SDS011;13413;52.336;21.200;2023-12-07T00:18:50;98.20;;;41.50;;
25509;SDS011;13413;52.336;21.200;2023-12-07T00:21:38;85.20;;;41.70;;
25509;SDS011;13413;52.336;21.200;2023-12-07T00:24:25;88.40;;;40.50;;
25509;SDS011;13413;52.336;21.200;2023-12-07T00:27:13;90.70;;;40.40;;
25509;SDS011;13413;52.336;21.200;2023-12-07T00:30:00;88.90;;;41.00;;
25509;SDS011;13413;52.336;21.200;2023-12-07T00:32:47;85.00;;;40.90;;
25509;SDS011;13413;52.336;21.200;2023-12-07T00:35:34;94.30;;;41.90;;
25509;SDS011;13413;52.336;21.200;2023-12-07T00:38:22;86.10;;;38.90;;
25509;SDS011;13413;52.336;21.200;2023-12-07T00:41:09;81.20;;;36.10;;
25509;SDS011;13413;52.336;21.200;2023-12-07T00:43:56;93.20;;;38.80;;
25509;SDS011;13413;52.336;21.200;2023-12-07T00:46:44;85.90;;;37.70;;
25509;SDS011;13413;52.336;21.200;2023-12-07T00:49:31;82.70;;;38.00;;
25509;SDS011;13413;52.336;21.200;2023-12-07T00:52:19;78.80;;;36.40;;
25509;SDS011;13413;52.336;21.200;2023-12-07T00:55:06;88.00;;;36.60;;
25509;SDS011;13413;52.336;21.200;2023-12-07T00:57:54;95.30;;;38.00;;
25509;SDS011;13413;52.336;21.200;2023-12-07T01:00:41;79.00;;;36.60;;
25509;SDS011;13413;52.336;21.200;2023-12-07T01:03:29;82.90;;;37.70;;
25509;SDS011;13413;52.336;21.200;2023-12-07T01:06:16;80.60;;;37.20;;
25509;SDS011;13413;52.336;21.200;2023-12-07T01:09:04;84.80;;;37.50;;
25509;SDS011;13413;52.336;21.200;2023-12-07T01:11:51;88.90;;;38.50;;
25509;SDS011;13413;52.336;21.200;2023-12-07T01:14:39;80.20;;;36.10;;
25509;SDS011;13413;52.336;21.200;2023-12-07T01:17:26;88.40;;;37.90;;
25509;SDS011;13413;52.336;21.200;2023-12-07T01:20:14;79.00;;;37.50;;
25509;SDS011;13413;52.336;21.200;2023-12-07T01:23:01;75.80;;;35.50;;
25509;SDS011;13413;52.336;21.200;2023-12-07T01:25:48;80.20;;;35.80;;
25509;SDS011;13413;52.336;21.200;2023-12-07T01:28:36;76.40;;;35.30;;
25509;SDS011;13413;52.336;21.200;2023-12-07T01:31:23;81.00;;;36.40;;
25509;SDS011;13413;52.336;21.200;2023-12-07T01:34:11;79.60;;;35.30;;
25509;SDS011;13413;52.336;21.200;2023-12-07T01:36:58;78.90;;;35.40;;
25509;SDS011;13413;52.336;21.200;2023-12-07T01:39:46;86.90;;;37.80;;
25509;SDS011;13413;52.336;21.200;2023-12-07T01:42:33;85.70;;;36.00;;
25509;SDS011;13413;52.336;21.200;2023-12-07T01:45:20;82.80;;;37.60;;
25509;SDS011;13413;52.336;21.200;2023-12-07T01:48:08;74.90;;;34.80;;
25509;SDS011;13413;52.336;21.200;2023-12-07T01:50:56;76.70;;;35.50;;
25509;SDS011;13413;52.336;21.200;2023-12-07T01:53:44;81.20;;;36.30;;
25509;SDS011;13413;52.336;21.200;2023-12-07T01:56:32;77.30;;;34.80;;
25509;SDS011;13413;52.336;21.200;2023-12-07T01:59:20;75.50;;;35.00;;
25509;SDS011;13413;52.336;21.200;2023-12-07T02:02:08;65.20;;;32.90;;
25509;SDS011;13413;52.336;21.200;2023-12-07T02:04:55;82.90;;;34.00;;
25509;SDS011;13413;52.336;21.200;2023-12-07T02:16:52;84.20;;;37.10;;
25509;SDS011;13413;52.336;21.200;2023-12-07T02:19:49;73.60;;;35.00;;
25509;SDS011;13413;52.336;21.200;2023-12-07T02:22:42;86.90;;;35.70;;
25509;SDS011;13413;52.336;21.200;2023-12-07T02:25:35;76.40;;;34.60;;
25509;SDS011;13413;52.336;21.200;2023-12-07T02:28:43;72.00;;;34.40;;
25509;SDS011;13413;52.336;21.200;2023-12-07T02:31:30;86.60;;;36.40;;
25509;SDS011;13413;52.336;21.200;2023-12-07T02:34:18;81.50;;;38.60;;
25509;SDS011;13413;52.336;21.200;2023-12-07T02:37:05;80.50;;;35.80;;
25509;SDS011;13413;52.336;21.200;2023-12-07T02:39:53;84.70;;;35.80;;
25509;SDS011;13413;52.336;21.200;2023-12-07T02:42:42;89.70;;;37.00;;
25509;SDS011;13413;52.336;21.200;2023-12-07T02:45:30;91.60;;;37.20;;
25509;SDS011;13413;52.336;21.200;2023-12-07T02:48:19;81.40;;;36.10;;
25509;SDS011;13413;52.336;21.200;2023-12-07T02:51:08;88.40;;;39.00;;
25509;SDS011;13413;52.336;21.200;2023-12-07T02:53:55;79.50;;;35.00;;
25509;SDS011;13413;52.336;21.200;2023-12-07T02:56:42;87.50;;;36.70;;
25509;SDS011;13413;52.336;21.200;2023-12-07T02:59:30;84.10;;;36.20;;
25509;SDS011;13413;52.336;21.200;2023-12-07T03:02:17;79.60;;;34.40;;
25509;SDS011;13413;52.336;21.200;2023-12-07T03:05:05;83.20;;;35.10;;
25509;SDS011;13413;52.336;21.200;2023-12-07T03:07:53;81.50;;;34.20;;
25509;SDS011;13413;52.336;21.200;2023-12-07T03:10:41;81.50;;;35.50;;
25509;SDS011;13413;52.336;21.200;2023-12-07T03:13:28;77.60;;;33.10;;
25509;SDS011;13413;52.336;21.200;2023-12-07T03:16:15;75.50;;;32.20;;
25509;SDS011;13413;52.336;21.200;2023-12-07T03:19:02;74.40;;;32.00;;
25509;SDS011;13413;52.336;21.200;2023-12-07T03:21:49;72.30;;;32.70;;
25509;SDS011;13413;52.336;21.200;2023-12-07T03:24:37;76.00;;;34.20;;
25509;SDS011;13413;52.336;21.200;2023-12-07T03:27:32;82.30;;;36.00;;
25509;SDS011;13413;52.336;21.200;2023-12-07T03:30:20;83.00;;;33.10;;
25509;SDS011;13413;52.336;21.200;2023-12-07T03:33:07;83.50;;;34.40;;
25509;SDS011;13413;52.336;21.200;2023-12-07T03:35:55;73.60;;;31.90;;
25509;SDS011;13413;52.336;21.200;2023-12-07T03:38:42;78.20;;;32.00;;
25509;SDS011;13413;52.336;21.200;2023-12-07T03:41:30;70.60;;;32.00;;
25509;SDS011;13413;52.336;21.200;2023-12-07T03:44:17;74.00;;;32.40;;
25509;SDS011;13413;52.336;21.200;2023-12-07T03:47:05;72.40;;;32.10;;
25509;SDS011;13413;52.336;21.200;2023-12-07T03:49:52;81.30;;;33.10;;
25509;SDS011;13413;52.336;21.200;2023-12-07T03:52:40;82.80;;;34.40;;
25509;SDS011;13413;52.336;21.200;2023-12-07T03:55:27;70.80;;;32.60;;
25509;SDS011;13413;52.336;21.200;2023-12-07T03:58:14;74.50;;;32.90;;
25509;SDS011;13413;52.336;21.200;2023-12-07T04:01:02;76.80;;;33.30;;
25509;SDS011;13413;52.336;21.200;2023-12-07T04:03:50;79.70;;;34.00;;
25509;SDS011;13413;52.336;21.200;2023-12-07T04:06:38;72.60;;;32.40;;
25509;SDS011;13413;52.336;21.200;2023-12-07T04:09:26;75.60;;;33.40;;
25509;SDS011;13413;52.336;21.200;2023-12-07T04:12:13;82.60;;;34.80;;
25509;SDS011;13413;52.336;21.200;2023-12-07T04:15:01;80.80;;;35.50;;
25509;SDS011;13413;52.336;21.200;2023-12-07T04:17:48;76.20;;;32.70;;
25509;SDS011;13413;52.336;21.200;2023-12-07T04:20:36;79.90;;;33.90;;
25509;SDS011;13413;52.336;21.200;2023-12-07T04:23:24;76.50;;;34.50;;
25509;SDS011;13413;52.336;21.200;2023-12-07T04:26:11;71.40;;;33.00;;
25509;SDS011;13413;52.336;21.200;2023-12-07T04:37:12;70.90;;;33.40;;
25509;SDS011;13413;52.336;21.200;2023-12-07T04:39:59;72.90;;;32.90;;
25509;SDS011;13413;52.336;21.200;2023-12-07T04:42:47;72.40;;;32.40;;
25509;SDS011;13413;52.336;21.200;2023-12-07T04:45:35;68.90;;;31.10;;
25509;SDS011;13413;52.336;21.200;2023-12-07T04:48:22;100.40;;;53.90;;
25509;SDS011;13413;52.336;21.200;2023-12-07T04:51:10;82.80;;;38.40;;
25509;SDS011;13413;52.336;21.200;2023-12-07T04:53:57;75.90;;;33.90;;
25509;SDS011;13413;52.336;21.200;2023-12-07T04:56:45;72.50;;;34.50;;
25509;SDS011;13413;52.336;21.200;2023-12-07T04:59:32;74.90;;;34.60;;
25509;SDS011;13413;52.336;21.200;2023-12-07T05:02:20;68.80;;;32.00;;
25509;SDS011;13413;52.336;21.200;2023-12-07T05:05:08;70.60;;;33.20;;
25509;SDS011;13413;52.336;21.200;2023-12-07T05:07:55;69.60;;;32.00;;
25509;SDS011;13413;52.336;21.200;2023-12-07T05:10:43;64.00;;;31.00;;
25509;SDS011;13413;52.336;21.200;2023-12-07T05:13:31;66.30;;;31.90;;
25509;SDS011;13413;52.336;21.200;2023-12-07T05:16:18;65.20;;;32.00;;
25509;SDS011;13413;52.336;21.200;2023-12-07T05:19:05;62.20;;;28.70;;
25509;SDS011;13413;52.336;21.200;2023-12-07T05:21:53;60.70;;;31.30;;
25509;SDS011;13413;52.336;21.200;2023-12-07T05:24:40;59.70;;;30.70;;
25509;SDS011;13413;52.336;21.200;2023-12-07T05:27:28;64.90;;;31.30;;
25509;SDS011;13413;52.336;21.200;2023-12-07T05:30:15;68.40;;;32.50;;
25509;SDS011;13413;52.336;21.200;2023-12-07T05:33:03;60.40;;;30.50;;
25509;SDS011;13413;52.336;21.200;2023-12-07T05:35:50;53.20;;;28.10;;
25509;SDS011;13413;52.336;21.200;2023-12-07T05:38:37;55.60;;;29.60;;
25509;SDS011;13413;52.336;21.200;2023-12-07T05:41:25;63.00;;;32.80;;
25509;SDS011;13413;52.336;21.200;2023-12-07T05:44:13;57.60;;;29.80;;
25509;SDS011;13413;52.336;21.200;2023-12-07T05:47:00;61.40;;;30.90;;
25509;SDS011;13413;52.336;21.200;2023-12-07T05:49:48;60.00;;;31.10;;
25509;SDS011;13413;52.336;21.200;2023-12-07T05:52:35;66.90;;;30.60;;
25509;SDS011;13413;52.336;21.200;2023-12-07T05:55:23;62.70;;;30.30;;
25509;SDS011;13413;52.336;21.200;2023-12-07T05:58:10;63.20;;;31.30;;
25509;SDS011;13413;52.336;21.200;2023-12-07T06:00:59;61.60;;;32.70;;
25509;SDS011;13413;52.336;21.200;2023-12-07T06:03:47;59.20;;;32.10;;
25509;SDS011;13413;52.336;21.200;2023-12-07T06:06:35;59.60;;;29.90;;
25509;SDS011;13413;52.336;21.200;2023-12-07T06:09:22;61.10;;;30.60;;
25509;SDS011;13413;52.336;21.200;2023-12-07T06:12:10;65.50;;;32.00;;
25509;SDS011;13413;52.336;21.200;2023-12-07T06:14:57;62.40;;;32.50;;
25509;SDS011;13413;52.336;21.200;2023-12-07T06:17:45;65.60;;;33.30;;
25509;SDS011;13413;52.336;21.200;2023-12-07T06:20:32;69.00;;;33.80;;
25509;SDS011;13413;52.336;21.200;2023-12-07T06:23:20;74.30;;;33.40;;
25509;SDS011;13413;52.336;21.200;2023-12-07T06:26:08;69.00;;;32.80;;
25509;SDS011;13413;52.336;21.200;2023-12-07T06:28:56;66.90;;;32.70;;
25509;SDS011;13413;52.336;21.200;2023-12-07T06:31:44;76.60;;;35.70;;
25509;SDS011;13413;52.336;21.200;2023-12-07T06:34:32;70.10;;;34.50;;
25509;SDS011;13413;52.336;21.200;2023-12-07T06:37:24;72.20;;;34.20;;
25509;SDS011;13413;52.336;21.200;2023-12-07T06:40:12;71.90;;;37.00;;
25509;SDS011;13413;52.336;21.200;2023-12-07T06:43:13;68.60;;;34.20;;
25509;SDS011;13413;52.336;21.200;2023-12-07T06:46:16;64.20;;;32.50;;
25509;SDS011;13413;52.336;21.200;2023-12-07T07:00:21;75.40;;;38.20;;
25509;SDS011;13413;52.336;21.200;2023-12-07T07:03:09;86.20;;;41.00;;
25509;SDS011;13413;52.336;21.200;2023-12-07T07:05:57;91.90;;;42.00;;
25509;SDS011;13413;52.336;21.200;2023-12-07T07:08:44;84.40;;;39.40;;
25509;SDS011;13413;52.336;21.200;2023-12-07T07:11:32;74.80;;;36.00;;
25509;SDS011;13413;52.336;21.200;2023-12-07T07:14:19;68.50;;;34.90;;
25509;SDS011;13413;52.336;21.200;2023-12-07T07:17:07;82.90;;;39.10;;
25509;SDS011;13413;52.336;21.200;2023-12-07T07:19:55;109.00;;;49.00;;
25509;SDS011;13413;52.336;21.200;2023-12-07T07:22:42;85.80;;;39.40;;
25509;SDS011;13413;52.336;21.200;2023-12-07T07:25:30;75.40;;;36.10;;
25509;SDS011;13413;52.336;21.200;2023-12-07T07:28:18;71.00;;;36.00;;
25509;SDS011;13413;52.336;21.200;2023-12-07T07:31:05;66.80;;;32.40;;
25509;SDS011;13413;52.336;21.200;2023-12-07T07:33:53;68.20;;;34.00;;
25509;SDS011;13413;52.336;21.200;2023-12-07T07:36:40;66.10;;;35.10;;
25509;SDS011;13413;52.336;21.200;2023-12-07T07:39:28;70.30;;;36.50;;
25509;SDS011;13413;52.336;21.200;2023-12-07T07:42:15;116.70;;;46.60;;
25509;SDS011;13413;52.336;21.200;2023-12-07T07:45:04;92.70;;;43.90;;
25509;SDS011;13413;52.336;21.200;2023-12-07T07:47:52;77.40;;;38.70;;
25509;SDS011;13413;52.336;21.200;2023-12-07T07:50:41;77.30;;;38.70;;
25509;SDS011;13413;52.336;21.200;2023-12-07T07:53:29;95.00;;;44.40;;
25509;SDS011;13413;52.336;21.200;2023-12-07T07:56:16;83.30;;;38.20;;
25509;SDS011;13413;52.336;21.200;2023-12-07T07:59:05;86.00;;;41.80;;
25509;SDS011;13413;52.336;21.200;2023-12-07T08:01:52;111.70;;;51.60;;
25509;SDS011;13413;52.336;21.200;2023-12-07T08:04:39;115.20;;;53.60;;
25509;SDS011;13413;52.336;21.200;2023-12-07T08:07:27;102.00;;;52.20;;
25509;SDS011;13413;52.336;21.200;2023-12-07T08:10:14;111.80;;;51.60;;
25509;SDS011;13413;52.336;21.200;2023-12-07T08:13:03;105.00;;;49.20;;
25509;SDS011;13413;52.336;21.200;2023-12-07T08:15:50;104.80;;;52.70;;
25509;SDS011;13413;52.336;21.200;2023-12-07T08:18:38;92.80;;;46.60;;
25509;SDS011;13413;52.336;21.200;2023-12-07T08:21:27;115.00;;;61.70;;
25509;SDS011;13413;52.336;21.200;2023-12-07T08:24:15;96.10;;;51.10;;
25509;SDS011;13413;52.336;21.200;2023-12-07T08:27:03;81.80;;;44.40;;
25509;SDS011;13413;52.336;21.200;2023-12-07T08:29:51;90.20;;;45.90;;
25509;SDS011;13413;52.336;21.200;2023-12-07T08:32:40;104.20;;;50.40;;
25509;SDS011;13413;52.336;21.200;2023-12-07T08:35:28;85.90;;;41.90;;
25509;SDS011;13413;52.336;21.200;2023-12-07T08:38:16;79.70;;;42.10;;
25509;SDS011;13413;52.336;21.200;2023-12-07T08:41:03;70.80;;;39.90;;
25509;SDS011;13413;52.336;21.200;2023-12-07T08:43:51;69.90;;;39.10;;
25509;SDS011;13413;52.336;21.200;2023-12-07T08:46:39;81.20;;;43.60;;
25509;SDS011;13413;52.336;21.200;2023-12-07T08:49:27;88.90;;;46.30;;
25509;SDS011;13413;52.336;21.200;2023-12-07T08:52:15;84.10;;;45.90;;
25509;SDS011;13413;52.336;21.200;2023-12-07T08:55:03;81.30;;;42.10;;
25509;SDS011;13413;52.336;21.200;2023-12-07T08:57:51;74.10;;;41.10;;
25509;SDS011;13413;52.336;21.200;2023-12-07T09:00:40;81.10;;;44.20;;
25509;SDS011;13413;52.336;21.200;2023-12-07T09:03:29;72.50;;;41.70;;
25509;SDS011;13413;52.336;21.200;2023-12-07T09:06:18;69.50;;;38.90;;
25509;SDS011;13413;52.336;21.200;2023-12-07T09:17:21;74.10;;;41.30;;
25509;SDS011;13413;52.336;21.200;2023-12-07T09:20:10;69.10;;;39.40;;
25509;SDS011;13413;52.336;21.200;2023-12-07T09:22:58;72.90;;;40.00;;
25509;SDS011;13413;52.336;21.200;2023-12-07T09:25:46;67.30;;;40.00;;
25509;SDS011;13413;52.336;21.200;2023-12-07T09:28:34;70.50;;;40.20;;
25509;SDS011;13413;52.336;21.200;2023-12-07T09:31:22;67.50;;;40.20;;
25509;SDS011;13413;52.336;21.200;2023-12-07T09:34:09;71.10;;;41.00;;
25509;SDS011;13413;52.336;21.200;2023-12-07T09:37:06;73.00;;;41.50;;
25509;SDS011;13413;52.336;21.200;2023-12-07T09:39:54;71.80;;;40.40;;
25509;SDS011;13413;52.336;21.200;2023-12-07T09:42:43;82.00;;;44.10;;
25509;SDS011;13413;52.336;21.200;2023-12-07T09:48:37;75.70;;;43.40;;
25509;SDS011;13413;52.336;21.200;2023-12-07T09:51:29;74.80;;;43.00;;
25509;SDS011;13413;52.336;21.200;2023-12-07T09:54:17;72.10;;;43.10;;
25509;SDS011;13413;52.336;21.200;2023-12-07T09:57:08;79.00;;;44.40;;
25509;SDS011;13413;52.336;21.200;2023-12-07T09:59:56;74.20;;;42.50;;
25509;SDS011;13413;52.336;21.200;2023-12-07T10:02:45;71.10;;;42.50;;
25509;SDS011;13413;52.336;21.200;2023-12-07T10:05:42;77.00;;;43.50;;
25509;SDS011;13413;52.336;21.200;2023-12-07T10:08:42;77.20;;;42.40;;
25509;SDS011;13413;52.336;21.200;2023-12-07T10:11:31;76.80;;;42.60;;
25509;SDS011;13413;52.336;21.200;2023-12-07T10:14:20;74.10;;;40.60;;
25509;SDS011;13413;52.336;21.200;2023-12-07T10:17:09;80.10;;;46.20;;
25509;SDS011;13413;52.336;21.200;2023-12-07T10:20:08;70.60;;;44.10;;
25509;SDS011;13413;52.336;21.200;2023-12-07T10:23:02;78.10;;;44.00;;
25509;SDS011;13413;52.336;21.200;2023-12-07T10:25:51;72.70;;;42.70;;
25509;SDS011;13413;52.336;21.200;2023-12-07T10:28:38;77.70;;;45.90;;
25509;SDS011;13413;52.336;21.200;2023-12-07T10:31:27;76.50;;;44.20;;
25509;SDS011;13413;52.336;21.200;2023-12-07T10:34:17;71.10;;;43.60;;
25509;SDS011;13413;52.336;21.200;2023-12-07T10:37:06;91.20;;;48.50;;
25509;SDS011;13413;52.336;21.200;2023-12-07T10:42:45;74.90;;;45.40;;
25509;SDS011;13413;52.336;21.200;2023-12-07T10:45:38;92.10;;;51.30;;
25509;SDS011;13413;52.336;21.200;2023-12-07T10:48:31;87.10;;;50.70;;
25509;SDS011;13413;52.336;21.200;2023-12-07T10:51:23;81.80;;;46.60;;
25509;SDS011;13413;52.336;21.200;2023-12-07T10:54:21;77.70;;;45.50;;
25509;SDS011;13413;52.336;21.200;2023-12-07T10:57:11;76.30;;;43.30;;
25509;SDS011;13413;52.336;21.200;2023-12-07T11:00:01;75.50;;;42.30;;
25509;SDS011;13413;52.336;21.200;2023-12-07T11:02:53;67.20;;;41.40;;
25509;SDS011;13413;52.336;21.200;2023-12-07T11:05:41;65.60;;;39.50;;
25509;SDS011;13413;52.336;21.200;2023-12-07T11:08:32;63.90;;;38.20;;
25509;SDS011;13413;52.336;21.200;2023-12-07T11:11:26;64.70;;;38.70;;
25509;SDS011;13413;52.336;21.200;2023-12-07T11:14:19;72.90;;;42.90;;
25509;SDS011;13413;52.336;21.200;2023-12-07T11:17:07;75.30;;;43.70;;
25509;SDS011;13413;52.336;21.200;2023-12-07T11:19:55;71.50;;;44.00;;
25509;SDS011;13413;52.336;21.200;2023-12-07T11:22:42;74.80;;;43.00;;
25509;SDS011;13413;52.336;21.200;2023-12-07T11:25:31;66.00;;;40.30;;
25509;SDS011;13413;52.336;21.200;2023-12-07T11:39:47;71.70;;;42.90;;
25509;SDS011;13413;52.336;21.200;2023-12-07T11:42:36;68.20;;;42.80;;
25509;SDS011;13413;52.336;21.200;2023-12-07T11:48:27;71.50;;;44.70;;
25509;SDS011;13413;52.336;21.200;2023-12-07T11:51:16;71.60;;;42.60;;
25509;SDS011;13413;52.336;21.200;2023-12-07T11:54:04;73.10;;;43.60;;
25509;SDS011;13413;52.336;21.200;2023-12-07T11:56:54;75.90;;;45.30;;
25509;SDS011;13413;52.336;21.200;2023-12-07T11:59:44;72.40;;;42.50;;
25509;SDS011;13413;52.336;21.200;2023-12-07T12:02:33;65.70;;;40.70;;
25509;SDS011;13413;52.336;21.200;2023-12-07T12:05:21;72.50;;;43.40;;
25509;SDS011;13413;52.336;21.200;2023-12-07T12:10:58;75.00;;;44.50;;
25509;SDS011;13413;52.336;21.200;2023-12-07T12:13:45;67.50;;;42.50;;
25509;SDS011;13413;52.336;21.200;2023-12-07T12:16:32;70.00;;;42.30;;
25509;SDS011;13413;52.336;21.200;2023-12-07T12:19:21;63.70;;;39.90;;
25509;SDS011;13413;52.336;21.200;2023-12-07T12:22:09;60.70;;;38.80;;
25509;SDS011;13413;52.336;21.200;2023-12-07T12:24:59;60.70;;;39.50;;
25509;SDS011;13413;52.336;21.200;2023-12-07T12:27:46;68.10;;;40.70;;
25509;SDS011;13413;52.336;21.200;2023-12-07T12:30:35;65.00;;;41.70;;
25509;SDS011;13413;52.336;21.200;2023-12-07T12:33:23;70.40;;;43.00;;
25509;SDS011;13413;52.336;21.200;2023-12-07T12:36:12;65.40;;;39.70;;
25509;SDS011;13413;52.336;21.200;2023-12-07T12:39:00;69.50;;;41.60;;
25509;SDS011;13413;52.336;21.200;2023-12-07T12:41:48;66.20;;;41.40;;
25509;SDS011;13413;52.336;21.200;2023-12-07T12:44:41;86.30;;;49.00;;
25509;SDS011;13413;52.336;21.200;2023-12-07T12:47:29;83.30;;;48.20;;
25509;SDS011;13413;52.336;21.200;2023-12-07T12:50:33;79.00;;;47.90;;
25509;SDS011;13413;52.336;21.200;2023-12-07T12:53:23;80.90;;;48.30;;
25509;SDS011;13413;52.336;21.200;2023-12-07T12:56:14;85.30;;;48.50;;
25509;SDS011;13413;52.336;21.200;2023-12-07T12:59:02;81.40;;;49.50;;
25509;SDS011;13413;52.336;21.200;2023-12-07T13:01:51;82.70;;;47.10;;
25509;SDS011;13413;52.336;21.200;2023-12-07T13:04:39;99.80;;;56.60;;
25509;SDS011;13413;52.336;21.200;2023-12-07T13:07:27;108.00;;;61.50;;
25509;SDS011;13413;52.336;21.200;2023-12-07T13:10:16;106.60;;;55.30;;
25509;SDS011;13413;52.336;21.200;2023-12-07T13:13:04;85.30;;;47.60;;
25509;SDS011;13413;52.336;21.200;2023-12-07T13:15:52;77.90;;;46.70;;
25509;SDS011;13413;52.336;21.200;2023-12-07T13:18:41;79.10;;;47.40;;
25509;SDS011;13413;52.336;21.200;2023-12-07T13:21:29;79.10;;;46.40;;
25509;SDS011;13413;52.336;21.200;2023-12-07T13:24:17;74.80;;;43.70;;
25509;SDS011;13413;52.336;21.200;2023-12-07T13:27:05;80.50;;;47.00;;
25509;SDS011;13413;52.336;21.200;2023-12-07T13:29:52;85.10;;;49.50;;
25509;SDS011;13413;52.336;21.200;2023-12-07T13:32:39;70.20;;;45.00;;
25509;SDS011;13413;52.336;21.200;2023-12-07T13:35:27;74.80;;;45.20;;
25509;SDS011;13413;52.336;21.200;2023-12-07T13:38:16;78.60;;;47.60;;
25509;SDS011;13413;52.336;21.200;2023-12-07T13:41:04;83.60;;;49.30;;
25509;SDS011;13413;52.336;21.200;2023-12-07T13:43:53;97.10;;;53.80;;
25509;SDS011;13413;52.336;21.200;2023-12-07T13:46:43;102.10;;;58.30;;
25509;SDS011;13413;52.336;21.200;2023-12-07T13:49:30;83.30;;;51.80;;
25509;SDS011;13413;52.336;21.200;2023-12-07T14:00:34;84.20;;;52.70;;
25509;SDS011;13413;52.336;21.200;2023-12-07T14:03:23;89.50;;;51.90;;
25509;SDS011;13413;52.336;21.200;2023-12-07T14:06:19;85.40;;;50.30;;
25509;SDS011;13413;52.336;21.200;2023-12-07T14:09:09;79.40;;;49.50;;
25509;SDS011;13413;52.336;21.200;2023-12-07T14:11:57;81.40;;;49.70;;
25509;SDS011;13413;52.336;21.200;2023-12-07T14:14:44;85.40;;;52.40;;
25509;SDS011;13413;52.336;21.200;2023-12-07T14:17:36;92.50;;;54.50;;
25509;SDS011;13413;52.336;21.200;2023-12-07T14:20:25;86.70;;;52.20;;
25509;SDS011;13413;52.336;21.200;2023-12-07T14:23:12;89.70;;;52.20;;
25509;SDS011;13413;52.336;21.200;2023-12-07T14:26:00;92.40;;;54.00;;
25509;SDS011;13413;52.336;21.200;2023-12-07T14:28:48;89.70;;;53.00;;
25509;SDS011;13413;52.336;21.200;2023-12-07T14:31:37;83.40;;;47.90;;
25509;SDS011;13413;52.336;21.200;2023-12-07T14:34:25;80.90;;;50.40;;
25509;SDS011;13413;52.336;21.200;2023-12-07T14:37:13;81.90;;;47.30;;
25509;SDS011;13413;52.336;21.200;2023-12-07T14:40:00;84.00;;;48.00;;
25509;SDS011;13413;52.336;21.200;2023-12-07T14:42:48;74.50;;;45.70;;
25509;SDS011;13413;52.336;21.200;2023-12-07T14:45:35;82.50;;;47.40;;
25509;SDS011;13413;52.336;21.200;2023-12-07T14:48:23;83.70;;;49.10;;
25509;SDS011;13413;52.336;21.200;2023-12-07T14:51:11;76.40;;;47.20;;
25509;SDS011;13413;52.336;21.200;2023-12-07T14:54:04;80.50;;;47.10;;
25509;SDS011;13413;52.336;21.200;2023-12-07T14:56:52;81.20;;;48.90;;
25509;SDS011;13413;52.336;21.200;2023-12-07T14:59:39;81.80;;;49.30;;
25509;SDS011;13413;52.336;21.200;2023-12-07T15:02:27;83.50;;;49.10;;
25509;SDS011;13413;52.336;21.200;2023-12-07T15:05:15;82.80;;;49.90;;
25509;SDS011;13413;52.336;21.200;2023-12-07T15:08:03;89.40;;;50.10;;
25509;SDS011;13413;52.336;21.200;2023-12-07T15:10:51;89.30;;;52.20;;
25509;SDS011;13413;52.336;21.200;2023-12-07T15:13:39;90.40;;;50.50;;
25509;SDS011;13413;52.336;21.200;2023-12-07T15:16:27;93.70;;;51.20;;
25509;SDS011;13413;52.336;21.200;2023-12-07T15:19:15;90.00;;;50.30;;
25509;SDS011;13413;52.336;21.200;2023-12-07T15:22:03;97.10;;;53.50;;
25509;SDS011;13413;52.336;21.200;2023-12-07T15:24:52;92.00;;;53.00;;
25509;SDS011;13413;52.336;21.200;2023-12-07T15:27:40;94.40;;;52.50;;
25509;SDS011;13413;52.336;21.200;2023-12-07T15:30:28;93.60;;;53.40;;
25509;SDS011;13413;52.336;21.200;2023-12-07T15:33:17;102.30;;;57.20;;
25509;SDS011;13413;52.336;21.200;2023-12-07T15:36:05;108.90;;;60.00;;
25509;SDS011;13413;52.336;21.200;2023-12-07T15:38:54;102.80;;;60.60;;
25509;SDS011;13413;52.336;21.200;2023-12-07T15:41:41;88.30;;;53.20;;
25509;SDS011;13413;52.336;21.200;2023-12-07T15:44:29;95.00;;;56.30;;
25509;SDS011;13413;52.336;21.200;2023-12-07T15:47:17;88.50;;;50.50;;
25509;SDS011;13413;52.336;21.200;2023-12-07T15:50:06;89.10;;;51.20;;
25509;SDS011;13413;52.336;21.200;2023-12-07T15:52:54;87.70;;;51.90;;
25509;SDS011;13413;52.336;21.200;2023-12-07T15:55:42;89.40;;;52.10;;
25509;SDS011;13413;52.336;21.200;2023-12-07T15:58:30;90.80;;;52.80;;
25509;SDS011;13413;52.336;21.200;2023-12-07T16:01:18;95.80;;;55.50;;
25509;SDS011;13413;52.336;21.200;2023-12-07T16:04:05;114.30;;;61.10;;
25509;SDS011;13413;52.336;21.200;2023-12-07T16:06:53;109.10;;;57.80;;
25509;SDS011;13413;52.336;21.200;2023-12-07T16:09:40;131.40;;;66.40;;
25509;SDS011;13413;52.336;21.200;2023-12-07T16:12:28;123.90;;;65.30;;
25509;SDS011;13413;52.336;21.200;2023-12-07T16:20:43;119.10;;;64.90;;
25509;SDS011;13413;52.336;21.200;2023-12-07T16:23:31;116.10;;;61.40;;
25509;SDS011;13413;52.336;21.200;2023-12-07T16:26:19;119.00;;;63.70;;
25509;SDS011;13413;52.336;21.200;2023-12-07T16:29:06;115.10;;;61.50;;
25509;SDS011;13413;52.336;21.200;2023-12-07T16:31:54;105.70;;;58.50;;
25509;SDS011;13413;52.336;21.200;2023-12-07T16:34:42;102.40;;;58.40;;
25509;SDS011;13413;52.336;21.200;2023-12-07T16:37:31;109.60;;;59.40;;
25509;SDS011;13413;52.336;21.200;2023-12-07T16:40:20;105.50;;;58.40;;
25509;SDS011;13413;52.336;21.200;2023-12-07T16:43:09;111.40;;;57.20;;
25509;SDS011;13413;52.336;21.200;2023-12-07T16:45:57;101.90;;;56.20;;
25509;SDS011;13413;52.336;21.200;2023-12-07T16:51:47;91.70;;;49.80;;
25509;SDS011;13413;52.336;21.200;2023-12-07T16:54:35;94.20;;;50.10;;
25509;SDS011;13413;52.336;21.200;2023-12-07T16:57:23;91.20;;;50.40;;
25509;SDS011;13413;52.336;21.200;2023-12-07T17:00:11;86.20;;;50.30;;
25509;SDS011;13413;52.336;21.200;2023-12-07T17:02:59;86.70;;;49.40;;
25509;SDS011;13413;52.336;21.200;2023-12-07T17:05:47;90.40;;;49.80;;
25509;SDS011;13413;52.336;21.200;2023-12-07T17:08:34;91.40;;;52.30;;
25509;SDS011;13413;52.336;21.200;2023-12-07T17:11:23;96.80;;;54.10;;
25509;SDS011;13413;52.336;21.200;2023-12-07T17:14:10;106.90;;;57.40;;
25509;SDS011;13413;52.336;21.200;2023-12-07T17:16:59;105.10;;;53.90;;
25509;SDS011;13413;52.336;21.200;2023-12-07T17:19:46;95.40;;;54.10;;
25509;SDS011;13413;52.336;21.200;2023-12-07T17:22:34;102.90;;;52.80;;
25509;SDS011;13413;52.336;21.200;2023-12-07T17:25:21;91.70;;;49.60;;
25509;SDS011;13413;52.336;21.200;2023-12-07T17:28:09;95.60;;;49.30;;